Memphis, TN

8:08 AM CST on January 20, 2017 (GMT -0600)
East Buntyn | | Change Station

Elev 315 ft 35.12 °N, 89.95 °W | Updated 8 minutes ago

Overcast
Overcast
57.4 °F
Feels Like 57.4 °F
N
2.2
Wind Variable Wind from SSE

Today
High -- | Low -- °F
--% Chance of Precip.
Yesterday
High -- | Low -- °F
Precip. -- in
Pressure 29.73 in
Visibility 10.0 miles
Clouds Mostly Cloudy 1100 ft
Overcast 1700 ft
Dew Point 56 °F
Humidity 96%
Rainfall 0.00 in
Snow Depth Not available.
7:05 AM 5:16 PM
Last Quarter, 44% visible
METAR KMEM 201354Z 21008G15KT 10SM BKN011 OVC017 14/13 A2974 RMK AO2 SLP068 T01440133
Pressure 29.73 in
Visibility 10.0 miles
Clouds Mostly Cloudy 1100 ft
Overcast 1700 ft
Dew Point 56 °F
Humidity 96%
Rainfall 0.00 in
Snow Depth Not available.
7:05 AM 5:16 PM
Last Quarter, 44% visible
METAR KMEM 201354Z 21008G15KT 10SM BKN011 OVC017 14/13 A2974 RMK AO2 SLP068 T01440133

Get Your Daily Forecast Email!

Thanks for signing up!

Be on the lookout for a verification email in your inbox.

You'll start receiving the daily forecast at 8 AM.

×

10-Day Weather Forecast

Almanac

Astronomy

Jan. 20, 2017 Rise Set
Actual Time
Civil Twilight
Nautical Twilight
Astronomical Twilight
Moon
Length of Visible Light
Length of Day
Tomorrow will be .
, % of the Moon is Illuminated

Today's Extremes

State Highs State Lows

Community

WunderPhotos

Upload Photos

1,962,540 photos uploaded!

WunderBlog® & News

Nearby

Air Quality

  Air Quality AQ Index Pollutant
Not available.

Snow Depth

Station Depth Elevation

Earthquake Activity

City Distance Mag. Time & Date
Minimum magnitude displayed is 2.5.

Coastal Water Temperatures

Place Temperature

Stations

Nearby Weather Stations

Station Location Temp. Windchill Dew Point Humidity Wind Precip. Elev Updated Type
                   

Watches & Warnings

There are currently no watches in effect.